Eden, North Carolina
Current Conditions -  °F | °C
As of 11:15 PM on Wednesday 28 Jan 2015 (Local Time) from KSIF Reporting Station
Clear Clear  
Wind Chill: 23°   Ceiling: Unl
Heat Index: 23°   Visibility: 10mi
Dew Point: 15°   Wind: 0mph
Humidity: 73%   Direction: NA
Pressure: 30.33"   Gusts: NA
Location:  36.5°N, 79.74°W
Report Text: KSIF 290415Z AUTO 00000KT 10SM CLR M05/M09 A3033 RMK AO2 T10521093
Loading
Personal Weather Stations






























Interactive Weather Map New forecast layout! Learn more

10-Day Weather Forecast

Advertisements
Track Severe Weather on mobile